createdAt,value
2023-04-08T00:04:58.193Z,96396.28
2023-04-08T00:10:00.665Z,96387.34
2023-04-08T00:15:05.718Z,96399.81
2023-04-08T00:20:08.938Z,96364.41
2023-04-08T00:25:12.022Z,96383.06
2023-04-08T00:30:17.678Z,96373.69
2023-04-08T00:35:21.321Z,96392.59
2023-04-08T00:40:24.119Z,96368.03
2023-04-08T00:45:26.768Z,96366.63
2023-04-08T00:50:33.951Z,96378.50
2023-04-08T00:55:36.528Z,96407.41
2023-04-08T01:00:46.066Z,96371.00
2023-04-08T01:06:04.885Z,96402.41
2023-04-08T01:11:13.420Z,96366.06
2023-04-08T01:16:18.441Z,96353.56
2023-04-08T01:21:29.247Z,96360.56
2023-04-08T01:26:38.666Z,96353.69
2023-04-08T01:31:43.319Z,96371.56
2023-04-08T01:36:48.144Z,96319.94
2023-04-08T01:41:54.088Z,96376.78
2023-04-08T01:46:57.792Z,96362.22
2023-04-08T01:52:02.388Z,96340.66
2023-04-08T01:57:09.482Z,96356.00
2023-04-08T02:02:13.363Z,96363.88
2023-04-08T02:07:19.307Z,96360.66
2023-04-08T02:12:24.042Z,96344.38
2023-04-08T02:17:47.961Z,96329.91
2023-04-08T02:23:15.341Z,96383.00
2023-04-08T02:28:20.354Z,96317.03
2023-04-08T02:33:24.003Z,96339.63
2023-04-08T02:38:31.111Z,96372.13
2023-04-08T02:43:36.675Z,96314.66
2023-04-08T02:48:41.908Z,96354.13
2023-04-08T02:53:47.072Z,96365.47
2023-04-08T02:58:49.856Z,96390.34
2023-04-08T03:03:52.896Z,96325.56
2023-04-08T03:08:55.612Z,96373.66
2023-04-08T03:13:59.482Z,96342.00
2023-04-08T03:19:01.807Z,96402.88
2023-04-08T03:24:04.452Z,96403.94
2023-04-08T03:29:10.644Z,96417.75
2023-04-08T03:34:17.245Z,96391.97
2023-04-08T03:39:22.908Z,96417.31
2023-04-08T03:44:27.953Z,96418.06
2023-04-08T03:49:32.937Z,96390.25
2023-04-08T03:54:35.553Z,96398.16
2023-04-08T03:59:40.074Z,96391.03
2023-04-08T04:04:42.512Z,96359.00
2023-04-08T04:09:44.959Z,96424.91
2023-04-08T04:14:47.492Z,96388.22
2023-04-08T04:19:50.003Z,96408.28
2023-04-08T04:24:54.386Z,96426.22
2023-04-08T04:30:00.390Z,96418.91
2023-04-08T04:35:05.622Z,96438.19
2023-04-08T04:40:09.341Z,96449.19
2023-04-08T04:45:12.786Z,96443.72
2023-04-08T04:50:18.230Z,96401.00
2023-04-08T04:55:23.741Z,96443.66
2023-04-08T05:00:27.961Z,96401.94
2023-04-08T05:05:31.800Z,96459.28
2023-04-08T05:10:34.622Z,96446.06
2023-04-08T05:15:40.888Z,96436.66
2023-04-08T05:20:44.026Z,96425.72
2023-04-08T05:25:47.021Z,96420.19
2023-04-08T05:30:53.593Z,96424.72
2023-04-08T05:35:58.094Z,96437.34
2023-04-08T05:41:03.108Z,96430.91
2023-04-08T05:46:10.173Z,96464.50
2023-04-08T05:51:19.358Z,96434.72
2023-04-08T05:56:24.837Z,96369.78
2023-04-08T06:01:28.174Z,96458.03
2023-04-08T06:06:31.050Z,96427.50
2023-04-08T06:11:36.180Z,96446.75
2023-04-08T06:16:42.873Z,96406.75
2023-04-08T06:21:48.037Z,96426.38
2023-04-08T06:26:51.196Z,96452.88
2023-04-08T06:31:54.421Z,96431.63
2023-04-08T06:37:00.032Z,96419.75
2023-04-08T06:42:05.410Z,96415.97
2023-04-08T06:47:31.740Z,96444.38
2023-04-08T06:52:34.707Z,96436.81
2023-04-08T06:57:38.089Z,96430.84
2023-04-08T07:02:41.405Z,96454.13
2023-04-08T07:07:46.878Z,96455.69
2023-04-08T07:12:49.696Z,96434.06
2023-04-08T07:17:52.791Z,96439.41
2023-04-08T07:22:55.715Z,96437.91
2023-04-08T07:28:09.892Z,96467.63
2023-04-08T07:33:12.939Z,96410.91
2023-04-08T07:38:16.411Z,96423.31
2023-04-08T07:43:19.400Z,96444.13
2023-04-08T07:48:22.141Z,96437.06
2023-04-08T07:53:26.805Z,96434.84
2023-04-08T07:58:29.925Z,96442.22
2023-04-08T08:03:34.150Z,96418.31
2023-04-08T08:08:40.307Z,96441.09
2023-04-08T08:13:43.399Z,96392.34
2023-04-08T08:18:46.350Z,96417.28
2023-04-08T08:23:51.227Z,96382.25
2023-04-08T08:28:54.610Z,96390.94
2023-04-08T08:33:56.956Z,96428.84
2023-04-08T08:39:05.855Z,96411.47
2023-04-08T08:44:10.778Z,96432.03
2023-04-08T08:49:16.343Z,96433.63
2023-04-08T08:54:19.374Z,96437.06
2023-04-08T08:59:25.297Z,96430.50
2023-04-08T09:04:28.410Z,96416.34
2023-04-08T09:09:49.450Z,96417.38
2023-04-08T09:14:52.487Z,96434.84
2023-04-08T09:20:13.147Z,96453.41
2023-04-08T09:25:35.320Z,96407.63
2023-04-08T09:30:39.326Z,96396.66
2023-04-08T09:35:44.434Z,96410.78
2023-04-08T09:40:47.351Z,96452.47
2023-04-08T09:45:53.502Z,96426.94
2023-04-08T09:50:58.267Z,96449.25
2023-04-08T09:56:02.756Z,96457.00
2023-04-08T10:01:09.078Z,96463.41
2023-04-08T10:06:12.947Z,96456.44
2023-04-08T10:11:18.484Z,96414.56
2023-04-08T10:16:33.833Z,96429.00
2023-04-08T10:21:48.502Z,96429.50
2023-04-08T10:26:53.824Z,96419.69
2023-04-08T10:32:00.590Z,96424.81
2023-04-08T10:37:04.207Z,96380.59
2023-04-08T10:42:09.136Z,96394.31
2023-04-08T10:47:15.941Z,96385.28
2023-04-08T10:52:20.639Z,96399.31
2023-04-08T10:57:29.438Z,96368.59
2023-04-08T11:02:39.105Z,96399.09
2023-04-08T11:07:45.933Z,96356.38
2023-04-08T11:12:50.708Z,96384.78
2023-04-08T11:17:59.746Z,96403.72
2023-04-08T11:23:03.613Z,96391.16
2023-04-08T11:28:10.091Z,96374.56
2023-04-08T11:33:19.621Z,96403.53
2023-04-08T11:38:30.281Z,96407.00
2023-04-08T11:43:37.001Z,96402.78
2023-04-08T11:48:41.558Z,96380.38
2023-04-08T11:53:48.466Z,96411.66
2023-04-08T11:58:54.602Z,96379.34
2023-04-08T12:04:05.099Z,96375.59
2023-04-08T12:09:10.121Z,96369.19
2023-04-08T12:14:13.082Z,96404.28
2023-04-08T12:19:15.977Z,96402.88
2023-04-08T12:24:18.797Z,96389.75
2023-04-08T12:29:21.853Z,96375.28
2023-04-08T12:34:32.534Z,96393.75
2023-04-08T12:39:34.812Z,96403.91
2023-04-08T12:44:37.686Z,96381.78
2023-04-08T12:54:49.230Z,96375.09
2023-04-08T12:59:51.971Z,96377.34
2023-04-08T13:04:55.625Z,96393.00
2023-04-08T13:10:01.620Z,96390.47
2023-04-08T13:15:08.323Z,96371.81
2023-04-08T13:20:12.032Z,96398.44
2023-04-08T13:25:15.278Z,96399.81
2023-04-08T13:30:18.126Z,96393.41
2023-04-08T13:35:24.394Z,96398.03
2023-04-08T13:40:28.410Z,96413.44
2023-04-08T13:45:31.428Z,96423.22
2023-04-08T13:50:44.081Z,96406.09
2023-04-08T13:55:47.404Z,96383.38
2023-04-08T14:00:52.011Z,96391.66
2023-04-08T14:05:55.153Z,96401.84
2023-04-08T14:11:00.935Z,96407.88
2023-04-08T14:16:05.660Z,96400.06
2023-04-08T14:21:08.598Z,96395.59
2023-04-08T14:26:12.016Z,96389.13
2023-04-08T14:31:15.109Z,96421.97
2023-04-08T14:36:24.526Z,96380.03
2023-04-08T14:41:30.102Z,96371.19
2023-04-08T14:46:32.887Z,96355.25
2023-04-08T14:51:38.163Z,96354.38
2023-04-08T14:56:41.851Z,96371.44
2023-04-08T15:01:45.413Z,96390.91
2023-04-08T15:06:48.391Z,96350.00
2023-04-08T15:11:51.001Z,96376.44
2023-04-08T15:16:53.918Z,96372.44
2023-04-08T15:21:57.288Z,96390.97
2023-04-08T15:27:02.280Z,96369.72
2023-04-08T15:32:04.975Z,96401.44
2023-04-08T15:37:07.614Z,96405.94
2023-04-08T15:42:10.448Z,96394.22
2023-04-08T15:47:13.254Z,96410.47
2023-04-08T15:52:15.986Z,96389.41
2023-04-08T15:57:18.692Z,96413.06
2023-04-08T16:02:21.838Z,96392.53
2023-04-08T16:07:24.586Z,96407.78
2023-04-08T16:12:27.243Z,96419.47
2023-04-08T16:17:30.017Z,96379.16
2023-04-08T16:22:32.366Z,96400.13
2023-04-08T16:27:35.183Z,96409.00
2023-04-08T16:32:37.913Z,96433.75
2023-04-08T16:37:40.934Z,96447.34
2023-04-08T16:42:43.226Z,96433.81
2023-04-08T16:47:46.344Z,96438.25
2023-04-08T16:52:50.153Z,96453.75
2023-04-08T16:57:53.158Z,96459.44
2023-04-08T17:02:57.794Z,96449.41
2023-04-08T17:08:00.792Z,96448.25
2023-04-08T17:13:05.534Z,96462.97
2023-04-08T17:18:08.411Z,96469.31
2023-04-08T17:23:11.413Z,96455.06
2023-04-08T17:28:14.818Z,96475.50
2023-04-08T17:33:17.050Z,96493.66
2023-04-08T17:38:19.942Z,96494.66
2023-04-08T17:43:22.656Z,96476.38
2023-04-08T17:48:25.938Z,96504.09
2023-04-08T17:53:28.680Z,96511.19
2023-04-08T17:58:31.605Z,96477.78
2023-04-08T18:03:34.677Z,96516.88
2023-04-08T18:08:37.485Z,96532.53
2023-04-08T18:13:39.667Z,96534.69
2023-04-08T18:18:42.362Z,96533.84
2023-04-08T18:23:47.340Z,96538.31
2023-04-08T18:28:50.218Z,96539.81
2023-04-08T18:33:52.937Z,96541.88
2023-04-08T18:38:56.006Z,96551.81
2023-04-08T18:44:01.247Z,96554.00
2023-04-08T18:49:04.007Z,96541.41
2023-04-08T18:54:06.709Z,96574.78
2023-04-08T18:59:12.454Z,96555.47
2023-04-08T19:04:16.142Z,96558.94
2023-04-08T19:09:18.898Z,96553.88
2023-04-08T19:14:22.906Z,96571.28
2023-04-08T19:19:25.732Z,96575.53
2023-04-08T19:24:29.429Z,96563.59
2023-04-08T19:29:34.545Z,96572.25
2023-04-08T19:34:40.971Z,96565.34
2023-04-08T19:39:43.845Z,96551.00
2023-04-08T19:44:50.231Z,96547.16
2023-04-08T19:49:53.135Z,96551.81
2023-04-08T19:54:55.698Z,96555.94
2023-04-08T19:59:58.772Z,96540.56
2023-04-08T20:05:02.390Z,96517.38
2023-04-08T20:10:08.025Z,96561.63
2023-04-08T20:15:23.659Z,96533.97
2023-04-08T20:20:29.980Z,96562.88
2023-04-08T20:25:33.020Z,96566.50
2023-04-08T20:30:35.854Z,96558.75
2023-04-08T20:35:38.608Z,96578.44
2023-04-08T20:40:44.977Z,96570.03
2023-04-08T20:45:47.361Z,96528.81
2023-04-08T20:50:53.121Z,96556.13
2023-04-08T20:55:59.101Z,96555.53
2023-04-08T21:01:01.935Z,96557.53
2023-04-08T21:06:05.214Z,96589.44
2023-04-08T21:11:07.725Z,96570.94
2023-04-08T21:16:10.670Z,96587.47
2023-04-08T21:21:13.470Z,96577.72
2023-04-08T21:26:16.398Z,96587.66
2023-04-08T21:31:19.225Z,96573.00
2023-04-08T21:36:22.121Z,96551.72
2023-04-08T21:41:26.447Z,96516.94
2023-04-08T21:46:30.778Z,96527.09
2023-04-08T21:51:41.847Z,96552.66
2023-04-08T21:56:44.978Z,96571.28
2023-04-08T22:01:48.272Z,96552.34
2023-04-08T22:06:51.975Z,96576.75
2023-04-08T22:11:54.630Z,96569.72
2023-04-08T22:16:57.657Z,96566.53
2023-04-08T22:22:02.749Z,96556.47
2023-04-08T22:27:06.005Z,96535.47
2023-04-08T22:32:11.619Z,96583.56
2023-04-08T22:37:16.711Z,96542.41
2023-04-08T22:42:19.713Z,96563.44
2023-04-08T22:47:22.952Z,96525.44
2023-04-08T22:52:31.686Z,96544.09
2023-04-08T22:57:35.092Z,96581.72
2023-04-08T23:02:38.411Z,96557.34
2023-04-08T23:07:41.800Z,96558.00
2023-04-08T23:12:46.811Z,96556.91
2023-04-08T23:17:49.654Z,96571.44
2023-04-08T23:22:54.942Z,96538.78
2023-04-08T23:27:57.775Z,96541.94
2023-04-08T23:33:00.804Z,96511.94
2023-04-08T23:38:09.922Z,96551.63
2023-04-08T23:43:12.789Z,96567.63
2023-04-08T23:48:15.562Z,96509.28
2023-04-08T23:53:21.758Z,96523.16
2023-04-08T23:58:24.738Z,96532.63
